Time;durP1;ratioP1;P1;durP2;ratioP2;P2;SDS_P1;SDS_P2;PMS_P1;PMS_P2;Temp;Humidity;BMP_temperature;BMP_pressure;BME280_temperature;BME280_humidity;BME280_pressure;Samples;Min_cycle;Max_cycle;Signal;HPM_P1;HPM_P2
2022/05/16 00:02:24;;;;;;;0.52;0.40;;;12.90;99.90;;;;;;5072434;28;20104;-86
2022/05/16 00:04:51;;;;;;;0.40;0.20;;;12.90;99.90;;;;;;5055586;28;20117;-85
2022/05/16 00:07:21;;;;;;;0.68;0.30;;;12.80;99.90;;;;;;5056343;28;20123;-82
2022/05/16 00:09:47;;;;;;;0.63;0.40;;;12.80;99.90;;;;;;5073594;28;20028;-82
2022/05/16 00:12:14;;;;;;;0.22;0.20;;;12.80;99.90;;;;;;5072516;28;20071;-87
2022/05/16 00:14:42;;;;;;;0.50;0.30;;;12.80;99.90;;;;;;5072002;28;20024;-87
2022/05/16 00:17:08;;;;;;;0.20;0.20;;;12.80;99.90;;;;;;5072181;28;20334;-84
2022/05/16 00:19:33;;;;;;;0.40;0.20;;;12.70;99.90;;;;;;5073298;28;20047;-82
2022/05/16 00:21:59;;;;;;;0.30;0.20;;;12.70;99.90;;;;;;5073386;28;20446;-85
2022/05/16 00:24:28;;;;;;;0.60;0.35;;;12.70;99.90;;;;;;5072046;28;20021;-83
2022/05/16 00:26:55;;;;;;;0.63;0.30;;;12.70;99.90;;;;;;5071692;28;20016;-83
2022/05/16 00:29:20;;;;;;;0.57;0.25;;;12.70;99.90;;;;;;5055629;28;20025;-82
2022/05/16 00:31:46;;;;;;;0.70;0.30;;;12.60;99.90;;;;;;5071438;28;20174;-83
2022/05/16 00:34:12;;;;;;;1.02;0.75;;;12.60;99.90;;;;;;5073176;28;20083;-87
2022/05/16 00:36:38;;;;;;;0.68;0.30;;;12.60;99.90;;;;;;5071542;28;20028;-83
2022/05/16 00:39:03;;;;;;;0.25;0.20;;;12.50;99.90;;;;;;5038500;28;20082;-82
2022/05/16 00:41:29;;;;;;;0.40;0.20;;;12.60;99.90;;;;;;5071934;28;20043;-82
2022/05/16 00:43:58;;;;;;;1.23;0.60;;;12.50;99.90;;;;;;5072198;28;20060;-83
2022/05/16 00:46:30;;;;;;;0.80;0.30;;;12.50;99.90;;;;;;5073529;28;20008;-85
2022/05/16 00:48:56;;;;;;;;;;;12.50;99.90;;;;;;5073214;28;20158;-82
2022/05/16 00:51:34;;;;;;;0.50;0.22;;;12.50;99.90;;;;;;5072899;28;19904;-82
2022/05/16 00:54:11;;;;;;;0.60;0.20;;;12.50;99.90;;;;;;5072089;28;20025;-84
2022/05/16 00:56:37;;;;;;;0.32;0.20;;;12.50;99.90;;;;;;5071918;28;20475;-82
2022/05/16 00:59:03;;;;;;;0.38;0.20;;;12.50;99.90;;;;;;5073534;28;20028;-82
2022/05/16 01:06:57;;;;;;;0.40;0.20;;;12.50;99.90;;;;;;5071938;28;20430;-88
2022/05/16 01:09:24;;;;;;;0.20;0.20;;;12.40;99.90;;;;;;5073167;28;20060;-82
2022/05/16 01:11:51;;;;;;;0.38;0.20;;;12.50;99.90;;;;;;5072477;28;20519;-83
2022/05/16 01:14:38;;;;;;;0.40;0.20;;;12.40;99.90;;;;;;5071701;28;20146;-82
2022/05/16 01:17:04;;;;;;;0.20;0.20;;;12.40;99.90;;;;;;5071214;28;20091;-81
2022/05/16 01:19:30;;;;;;;0.32;0.20;;;12.40;99.90;;;;;;5054307;28;20029;-87
2022/05/16 01:22:00;;;;;;;0.70;0.25;;;12.40;99.90;;;;;;5054365;28;20016;-85
2022/05/16 01:24:27;;;;;;;0.52;0.25;;;12.40;99.90;;;;;;5073026;28;20056;-82
2022/05/16 01:26:52;;;;;;;0.20;0.20;;;12.40;99.90;;;;;;5071562;28;20039;-81
2022/05/16 01:29:20;;;;;;;0.40;0.20;;;12.40;99.90;;;;;;5074934;28;20091;-82
2022/05/16 01:31:46;;;;;;;0.28;0.20;;;12.40;99.90;;;;;;5074859;28;20468;-82
2022/05/16 01:34:12;;;;;;;0.55;0.25;;;12.40;99.90;;;;;;5075197;28;20024;-82
2022/05/16 01:36:39;;;;;;;0.75;0.30;;;12.40;99.90;;;;;;5075069;28;20063;-81
2022/05/16 01:39:04;;;;;;;0.85;0.30;;;12.40;99.90;;;;;;5075149;28;20032;-82
2022/05/16 01:41:30;;;;;;;0.50;0.20;;;12.40;99.90;;;;;;5058122;28;20344;-81
2022/05/16 01:44:00;;;;;;;0.47;0.20;;;12.40;99.90;;;;;;5074775;28;20475;-85
2022/05/16 01:46:34;;;;;;;0.75;0.40;;;12.40;99.90;;;;;;5076352;28;20044;-81
2022/05/16 01:49:00;;;;;;;0.73;0.30;;;12.40;99.90;;;;;;5076204;28;20528;-84
2022/05/16 01:51:26;;;;;;;0.28;0.20;;;12.40;99.90;;;;;;5076250;28;20096;-80
2022/05/16 01:53:52;;;;;;;0.63;0.25;;;12.40;99.90;;;;;;5057655;28;20027;-82
2022/05/16 01:56:18;;;;;;;0.47;0.28;;;12.40;99.90;;;;;;5041871;28;20024;-81
2022/05/16 01:58:44;;;;;;;1.00;0.60;;;12.50;99.90;;;;;;5058396;28;20345;-80
2022/05/16 02:01:11;;;;;;;0.57;0.25;;;12.50;99.90;;;;;;5077669;28;20024;-81
2022/05/16 02:03:43;;;;;;;0.35;0.20;;;12.50;99.90;;;;;;5076056;28;20025;-83
2022/05/16 02:06:09;;;;;;;0.60;0.22;;;12.50;99.90;;;;;;5076586;28;20375;-81
2022/05/16 02:08:35;;;;;;;0.57;0.30;;;12.50;99.90;;;;;;5057551;28;20024;-86
2022/05/16 02:11:05;;;;;;;0.68;0.30;;;12.50;99.90;;;;;;5075516;28;20024;-81
2022/05/16 02:13:33;;;;;;;0.40;0.20;;;12.40;99.90;;;;;;5074199;28;20036;-81
2022/05/16 02:15:59;;;;;;;0.47;0.25;;;12.40;99.90;;;;;;5075668;28;20016;-82
2022/05/16 02:18:25;;;;;;;0.90;0.30;;;12.40;99.90;;;;;;5057766;28;20025;-83
2022/05/16 02:20:52;;;;;;;0.47;0.20;;;12.30;99.90;;;;;;5075252;28;20031;-82
2022/05/16 02:26:02;;;;;;;0.20;0.20;;;12.20;99.90;;;;;;5075864;28;20054;-81
2022/05/16 02:28:27;;;;;;;0.45;0.20;;;12.10;99.90;;;;;;5075404;28;20021;-84
2022/05/16 02:30:55;;;;;;;0.40;0.20;;;12.10;99.90;;;;;;5074545;28;20025;-81
2022/05/16 02:33:21;;;;;;;0.60;0.30;;;12.10;99.90;;;;;;5074187;28;20076;-81
2022/05/16 02:35:47;;;;;;;0.68;0.30;;;12.10;99.90;;;;;;5075364;28;20016;-82
2022/05/16 02:38:15;;;;;;;0.80;0.30;;;12.00;99.90;;;;;;5056397;28;20027;-85
2022/05/16 02:40:41;;;;;;;0.28;0.20;;;12.00;99.90;;;;;;5072988;28;20048;-80
2022/05/16 02:43:07;;;;;;;0.47;0.40;;;12.00;99.90;;;;;;5073951;28;20453;-82
2022/05/16 02:45:34;;;;;;;0.20;0.20;;;12.00;99.90;;;;;;5075039;28;20107;-81
2022/05/16 02:48:00;;;;;;;0.28;0.20;;;12.00;99.90;;;;;;5056870;28;20032;-86
2022/05/16 02:50:26;;;;;;;0.20;0.20;;;11.90;99.90;;;;;;5073796;28;20078;-81
2022/05/16 02:52:53;;;;;;;0.32;0.20;;;11.90;99.90;;;;;;5074850;28;20031;-83
2022/05/16 02:55:20;;;;;;;0.38;0.22;;;11.90;99.90;;;;;;5074513;28;20029;-81
2022/05/16 02:57:46;;;;;;;0.70;0.30;;;11.90;99.90;;;;;;5073775;28;20017;-85
2022/05/16 03:00:13;;;;;;;0.38;0.20;;;11.80;99.90;;;;;;5073801;28;20139;-82
2022/05/16 03:02:39;;;;;;;0.68;0.30;;;11.80;99.90;;;;;;5073855;28;20137;-81
2022/05/16 03:05:06;;;;;;;0.40;0.20;;;11.80;99.90;;;;;;5074499;28;20028;-82
2022/05/16 03:07:32;;;;;;;0.55;0.20;;;11.70;99.90;;;;;;5040363;28;20033;-86
2022/05/16 03:09:58;;;;;;;0.60;0.30;;;11.80;99.90;;;;;;5073343;28;20024;-84
2022/05/16 03:12:24;;;;;;;1.08;0.38;;;11.80;99.90;;;;;;5073611;28;20634;-86
2022/05/16 03:14:49;;;;;;;0.70;0.30;;;11.70;99.90;;;;;;5073121;28;20047;-81
2022/05/16 03:17:15;;;;;;;0.93;0.30;;;11.80;99.90;;;;;;5073211;28;20060;-81
2022/05/16 03:19:41;;;;;;;0.20;0.20;;;11.80;99.90;;;;;;5073272;28;20021;-87
2022/05/16 03:22:06;;;;;;;0.88;0.30;;;11.80;99.90;;;;;;5073853;28;20368;-81
2022/05/16 03:24:33;;;;;;;1.00;0.40;;;11.70;99.90;;;;;;5074244;28;20027;-81
2022/05/16 03:27:00;;;;;;;0.60;0.25;;;11.80;99.90;;;;;;5074152;28;20363;-83
2022/05/16 03:29:26;;;;;;;1.20;0.60;;;11.70;99.90;;;;;;5073943;28;20449;-81
2022/05/16 03:31:52;;;;;;;0.40;0.20;;;11.80;99.90;;;;;;5074012;28;20020;-82
2022/05/16 03:34:17;;;;;;;0.60;0.28;;;11.80;99.90;;;;;;5056468;28;20021;-83
2022/05/16 03:36:43;;;;;;;0.30;0.20;;;11.80;99.90;;;;;;5072995;28;20074;-81
2022/05/16 03:41:53;;;;;;;0.80;0.30;;;11.80;99.90;;;;;;5075358;28;20047;-85
2022/05/16 03:44:20;;;;;;;0.55;0.20;;;11.80;99.90;;;;;;5072510;28;20463;-83
2022/05/16 03:46:45;;;;;;;0.30;0.20;;;11.80;99.90;;;;;;5071831;28;20129;-85
2022/05/16 03:49:11;;;;;;;0.38;0.20;;;11.80;99.90;;;;;;5055715;28;20181;-81
2022/05/16 03:51:37;;;;;;;0.55;0.30;;;11.80;99.90;;;;;;5071881;28;20043;-82
2022/05/16 03:54:04;;;;;;;0.28;0.20;;;11.80;99.90;;;;;;5073190;28;20024;-83
2022/05/16 03:56:30;;;;;;;1.13;0.40;;;11.80;99.90;;;;;;5054655;28;20070;-81
2022/05/16 03:58:57;;;;;;;0.25;0.20;;;11.80;99.90;;;;;;5072090;28;20028;-81
2022/05/16 04:01:23;;;;;;;0.90;0.30;;;11.80;99.90;;;;;;5073621;28;20067;-81
2022/05/16 04:03:50;;;;;;;0.22;0.20;;;11.90;99.90;;;;;;5072215;28;20031;-81
2022/05/16 04:06:16;;;;;;;0.70;0.30;;;11.80;99.90;;;;;;5071310;28;20114;-84
2022/05/16 04:08:43;;;;;;;0.82;0.30;;;11.80;99.90;;;;;;5054759;28;20021;-82
2022/05/16 04:11:09;;;;;;;0.80;0.30;;;11.80;99.90;;;;;;5054477;28;20139;-81
2022/05/16 04:13:36;;;;;;;0.73;0.30;;;11.80;99.90;;;;;;5071448;28;20111;-81
2022/05/16 04:16:02;;;;;;;0.77;0.30;;;11.80;99.90;;;;;;5071480;28;20115;-82
2022/05/16 04:18:28;;;;;;;0.43;0.30;;;11.90;99.90;;;;;;5072819;28;20029;-81
2022/05/16 04:20:54;;;;;;;1.08;0.47;;;11.90;99.90;;;;;;5055260;28;20043;-83
2022/05/16 04:23:20;;;;;;;0.47;0.22;;;11.90;99.90;;;;;;5054335;28;20451;-84
2022/05/16 04:25:46;;;;;;;0.28;0.20;;;11.90;99.90;;;;;;5037894;28;20013;-85
2022/05/16 04:28:12;;;;;;;1.75;0.50;;;11.90;99.90;;;;;;5054924;28;20158;-84
2022/05/16 04:30:39;;;;;;;0.68;0.30;;;12.00;99.90;;;;;;5071530;28;20115;-82
2022/05/16 04:33:06;;;;;;;0.68;0.32;;;12.00;99.90;;;;;;5054882;28;20333;-81
2022/05/16 04:35:36;;;;;;;0.85;0.40;;;12.10;99.90;;;;;;5054741;28;20543;-85
2022/05/16 04:38:05;;;;;;;0.45;0.45;;;12.10;99.90;;;;;;5071838;28;20090;-80
2022/05/16 04:40:32;;;;;;;0.32;0.20;;;12.20;99.90;;;;;;5072814;28;20135;-82
2022/05/16 04:42:58;;;;;;;0.25;0.20;;;12.20;99.90;;;;;;5071147;28;20020;-84
2022/05/16 04:45:29;;;;;;;0.20;0.20;;;12.30;99.90;;;;;;5038038;28;20027;-81
2022/05/16 04:47:58;;;;;;;0.20;0.20;;;12.30;99.90;;;;;;5071707;28;20035;-84
2022/05/16 04:50:27;;;;;;;0.20;0.20;;;12.30;99.90;;;;;;5071125;28;20037;-82
2022/05/16 04:52:53;;;;;;;0.43;0.20;;;12.30;99.90;;;;;;5072302;28;20021;-84
2022/05/16 04:55:19;;;;;;;0.57;0.22;;;12.30;99.90;;;;;;5055053;28;20053;-81
2022/05/16 04:57:45;;;;;;;0.43;0.20;;;12.30;99.90;;;;;;5054134;28;20444;-79
2022/05/16 05:00:13;;;;;;;0.60;0.40;;;12.40;99.90;;;;;;5054804;28;20051;-79
2022/05/16 05:02:39;;;;;;;0.63;0.25;;;12.50;99.90;;;;;;5072827;28;20455;-80
2022/05/16 05:05:07;;;;;;;0.70;0.40;;;12.60;99.90;;;;;;5074889;28;20021;-83
2022/05/16 05:07:32;;;;;;;0.40;0.20;;;12.70;99.90;;;;;;5075036;28;20032;-80
2022/05/16 05:15:26;;;;;;;0.73;0.30;;;12.90;99.90;;;;;;5060696;28;20161;-80
2022/05/16 05:17:52;;;;;;;0.63;0.30;;;13.00;99.90;;;;;;5057894;28;20490;-80
2022/05/16 05:20:18;;;;;;;0.75;0.30;;;13.10;99.90;;;;;;5042376;28;20033;-80
2022/05/16 05:22:46;;;;;;;0.57;0.25;;;13.20;99.90;;;;;;5058572;28;20369;-79
2022/05/16 05:25:17;;;;;;;0.77;0.30;;;13.30;99.90;;;;;;5074812;28;20025;-80
2022/05/16 05:27:44;;;;;;;0.60;0.30;;;13.40;99.90;;;;;;5075393;28;20392;-79
2022/05/16 05:30:16;;;;;;;0.63;0.30;;;13.40;99.90;;;;;;5074500;28;20470;-80
2022/05/16 05:32:46;;;;;;;0.45;0.30;;;13.50;99.90;;;;;;5074604;28;20035;-78
2022/05/16 05:35:12;;;;;;;0.35;0.20;;;13.60;99.90;;;;;;5058255;28;20020;-83
2022/05/16 05:37:38;;;;;;;0.90;0.30;;;13.70;99.90;;;;;;5074423;28;20178;-80
2022/05/16 05:40:06;;;;;;;0.68;0.30;;;13.80;99.90;;;;;;5074222;28;20139;-80
2022/05/16 05:42:32;;;;;;;0.63;0.28;;;13.80;99.90;;;;;;5074882;28;20017;-83
2022/05/16 05:44:58;;;;;;;1.35;0.63;;;14.00;99.90;;;;;;5075955;28;20087;-80
2022/05/16 05:47:26;;;;;;;0.88;0.30;;;14.20;99.90;;;;;;5057461;28;20044;-81
2022/05/16 05:49:52;;;;;;;0.63;0.30;;;14.50;99.90;;;;;;5057480;28;20086;-83
2022/05/16 05:52:18;;;;;;;0.52;0.20;;;14.70;99.90;;;;;;5056920;28;20029;-80
2022/05/16 05:54:44;;;;;;;0.80;0.40;;;15.00;99.90;;;;;;5075445;28;20024;-80
2022/05/16 05:57:10;;;;;;;1.25;0.45;;;15.20;99.90;;;;;;5073946;28;20104;-80
2022/05/16 05:59:36;;;;;;;0.17;0.13;;;15.40;99.90;;;;;;5074041;28;20024;-79
2022/05/16 06:02:03;;;;;;;0.82;0.35;;;15.50;99.90;;;;;;5073974;28;20443;-82
2022/05/16 06:04:28;;;;;;;0.43;0.20;;;15.70;99.90;;;;;;5074491;28;20012;-80
2022/05/16 06:06:54;;;;;;;0.57;0.20;;;15.70;99.90;;;;;;5057368;28;20534;-80
2022/05/16 06:09:20;;;;;;;0.70;0.40;;;15.60;99.90;;;;;;5057433;28;20107;-80
2022/05/16 06:11:48;;;;;;;0.45;0.20;;;15.80;99.90;;;;;;5073726;28;20017;-80
2022/05/16 06:14:13;;;;;;;0.63;0.40;;;16.00;99.90;;;;;;5073378;28;20032;-80
2022/05/16 06:16:40;;;;;;;0.98;0.52;;;16.30;99.90;;;;;;5074498;28;20021;-79
2022/05/16 06:19:08;;;;;;;0.68;0.40;;;16.60;99.90;;;;;;5073535;28;20021;-80
2022/05/16 06:21:34;;;;;;;0.70;0.20;;;16.90;99.90;;;;;;5057681;28;20025;-85
2022/05/16 06:24:00;;;;;;;0.38;0.10;;;16.90;99.90;;;;;;5075092;28;20050;-82
2022/05/16 06:26:27;;;;;;;0.88;0.25;;;17.20;99.90;;;;;;5056660;28;20109;-81
2022/05/16 06:28:53;;;;;;;0.70;0.20;;;17.20;99.90;;;;;;5040282;28;20029;-82
2022/05/16 06:31:18;;;;;;;0.38;0.10;;;17.40;99.90;;;;;;5074752;28;20070;-81
2022/05/16 06:33:47;;;;;;;0.77;0.20;;;17.50;99.90;;;;;;5073623;28;20043;-81
2022/05/16 06:36:13;;;;;;;0.73;0.28;;;17.90;99.90;;;;;;5073989;28;20114;-82
2022/05/16 06:38:39;;;;;;;0.75;0.20;;;18.20;99.90;;;;;;5074104;28;20083;-83
2022/05/16 06:41:05;;;;;;;0.57;0.20;;;18.40;99.90;;;;;;5056380;28;20439;-82
2022/05/16 06:43:32;;;;;;;0.75;0.20;;;18.70;99.90;;;;;;5073641;28;20032;-83
2022/05/16 06:45:59;;;;;;;0.10;0.10;;;18.80;99.90;;;;;;5073695;28;20059;-82
2022/05/16 06:48:25;;;;;;;0.90;0.13;;;18.70;99.90;;;;;;5074643;28;20024;-83
2022/05/16 06:50:52;;;;;;;0.68;0.20;;;18.70;99.90;;;;;;5075100;28;20035;-82
2022/05/16 06:53:22;;;;;;;0.45;0.15;;;18.80;99.90;;;;;;5040289;28;20125;-82
2022/05/16 06:55:48;;;;;;;0.57;0.20;;;19.20;99.90;;;;;;5074413;28;20475;-81
2022/05/16 06:58:14;;;;;;;0.47;0.13;;;19.60;99.90;;;;;;5073564;28;20349;-81
2022/05/16 07:00:39;;;;;;;0.38;0.30;;;19.60;99.90;;;;;;5073029;28;20067;-83
2022/05/16 07:03:05;;;;;;;0.77;0.30;;;19.80;99.90;;;;;;5072933;28;20033;-87
2022/05/16 07:05:32;;;;;;;0.17;0.10;;;20.20;99.90;;;;;;5072835;28;20025;-86
2022/05/16 07:07:57;;;;;;;0.68;0.20;;;20.50;99.90;;;;;;5074594;28;20063;-86
2022/05/16 07:10:25;;;;;;;0.10;0.10;;;21.20;99.90;;;;;;5056440;28;20033;-86
2022/05/16 07:12:51;;;;;;;0.10;0.10;;;21.60;99.10;;;;;;5072844;28;20062;-87
2022/05/16 07:15:17;;;;;;;0.10;0.10;;;22.40;95.90;;;;;;5074606;28;20029;-87
2022/05/16 07:17:43;;;;;;;0.00;0.00;;;22.40;91.90;;;;;;5074581;28;20052;-82
2022/05/16 07:20:10;;;;;;;0.17;0.10;;;22.10;84.70;;;;;;5074649;28;20071;-84
2022/05/16 07:22:41;;;;;;;0.40;0.20;;;22.10;82.40;;;;;;5056833;28;20123;-83
2022/05/16 07:25:07;;;;;;;1.08;0.70;;;22.10;77.50;;;;;;5073388;28;20036;-81
2022/05/16 07:30:18;;;;;;;0.20;0.20;;;22.40;82.50;;;;;;5059575;28;20170;-80
2022/05/16 07:32:44;;;;;;;0.17;0.10;;;22.80;80.50;;;;;;5072462;28;20119;-78
2022/05/16 07:35:14;;;;;;;0.10;0.10;;;23.30;79.90;;;;;;5074186;28;20024;-77
2022/05/16 07:37:40;;;;;;;0.05;0.05;;;23.10;68.50;;;;;;5073514;28;20028;-80
2022/05/16 07:40:09;;;;;;;0.00;0.00;;;23.10;71.70;;;;;;5072495;28;20063;-79
2022/05/16 07:42:36;;;;;;;0.10;0.10;;;22.40;64.20;;;;;;5071941;28;20040;-80
2022/05/16 07:45:04;;;;;;;0.17;0.10;;;22.90;71.80;;;;;;5056095;28;20437;-79
2022/05/16 07:47:32;;;;;;;0.20;0.10;;;22.70;66.00;;;;;;5072870;28;20090;-79
2022/05/16 07:49:58;;;;;;;0.10;0.10;;;22.90;67.50;;;;;;5072436;28;20047;-79
2022/05/16 07:52:24;;;;;;;0.32;0.15;;;23.30;69.50;;;;;;5056601;28;20432;-78
2022/05/16 07:54:52;;;;;;;0.13;0.13;;;23.30;63.00;;;;;;5039056;28;20409;-79
2022/05/16 07:57:18;;;;;;;0.10;0.10;;;23.80;64.20;;;;;;5072521;28;20036;-79
2022/05/16 07:59:44;;;;;;;0.00;0.00;;;23.50;62.20;;;;;;5055655;28;20411;-79
2022/05/16 08:02:12;;;;;;;0.20;0.10;;;23.50;60.90;;;;;;5072477;28;20043;-78
2022/05/16 08:04:38;;;;;;;0.50;0.25;;;24.00;63.70;;;;;;5072023;28;20096;-79
2022/05/16 08:07:05;;;;;;;0.20;0.10;;;24.70;66.60;;;;;;5074049;28;20047;-79
2022/05/16 08:12:42;;;;;;;0.10;0.10;;;26.10;59.70;;;;;;5074711;28;20047;-79
2022/05/16 08:15:08;;;;;;;0.10;0.10;;;26.60;58.30;;;;;;5058466;28;20039;-78
2022/05/16 08:17:35;;;;;;;0.17;0.10;;;25.80;53.00;;;;;;5055719;28;20025;-78
2022/05/16 08:20:04;;;;;;;0.38;0.20;;;25.20;53.40;;;;;;5057576;28;20043;-78
2022/05/16 08:22:34;;;;;;;0.10;0.10;;;25.20;55.30;;;;;;5075102;28;20071;-78
2022/05/16 08:25:00;;;;;;;0.10;0.10;;;25.60;53.60;;;;;;5073360;28;20025;-78
2022/05/16 08:27:27;;;;;;;0.00;0.00;;;26.60;55.80;;;;;;5073252;28;20077;-79
2022/05/16 08:29:54;;;;;;;0.00;0.00;;;26.40;51.90;;;;;;5072058;28;20044;-78
2022/05/16 08:32:23;;;;;;;0.22;0.20;;;25.60;50.80;;;;;;5055425;28;20449;-79
2022/05/16 08:34:57;;;;;;;0.10;0.10;;;26.10;52.80;;;;;;5071621;28;20029;-78
2022/05/16 08:40:08;;;;;;;0.10;0.10;;;26.10;54.00;;;;;;5073968;28;20080;-79
2022/05/16 08:42:54;;;;;;;0.10;0.10;;;27.60;55.50;;;;;;5073775;28;20020;-79
2022/05/16 08:45:41;;;;;;;0.30;0.10;;;27.60;53.20;;;;;;5075123;28;20096;-79
2022/05/16 08:48:23;;;;;;;0.10;0.10;;;28.40;53.40;;;;;;5073375;28;20039;-79
2022/05/16 08:50:54;;;;;;;0.00;0.00;;;27.60;48.90;;;;;;5072628;28;20031;-79
2022/05/16 08:53:32;;;;;;;;;;;27.40;48.90;;;;;;5055163;28;20025;-78
2022/05/16 08:56:08;;;;;;;0.10;0.10;;;28.40;49.00;;;;;;5071974;28;19904;-80
2022/05/16 08:58:43;;;;;;;0.10;0.10;;;28.00;49.70;;;;;;5072640;28;20060;-79
2022/05/16 09:01:54;;;;;;;0.10;0.10;;;27.40;50.90;;;;;;5072605;28;20105;-79
2022/05/16 09:04:38;;;;;;;;;;;28.10;50.00;;;;;;5073891;28;20021;-78
2022/05/16 09:07:31;;;;;;;0.10;0.10;;;28.30;49.70;;;;;;5073528;28;19931;-79
2022/05/16 09:10:18;;;;;;;0.20;0.10;;;28.40;50.70;;;;;;5069947;28;20060;-79
2022/05/16 09:13:17;;;;;;;0.10;0.10;;;28.90;49.10;;;;;;5071784;28;20033;-78
2022/05/16 09:16:17;;;;;;;0.10;0.10;;;28.90;49.10;;;;;;5071780;28;20123;-79
2022/05/16 09:19:02;;;;;;;0.10;0.10;;;29.00;48.20;;;;;;5072937;28;20040;-79
2022/05/16 09:21:50;;;;;;;0.00;0.00;;;29.10;47.10;;;;;;5071784;28;20279;-79
2022/05/16 09:24:27;;;;;;;0.00;0.00;;;29.40;49.10;;;;;;5072555;28;20067;-78
2022/05/16 09:30:05;;;;;;;0.17;0.10;;;30.00;48.30;;;;;;5050626;28;20128;-80
2022/05/16 09:32:49;;;;;;;0.03;0.03;;;29.90;48.20;;;;;;5070892;28;20033;-79
2022/05/16 09:35:45;;;;;;;0.10;0.10;;;30.50;47.70;;;;;;5056138;28;20029;-80
2022/05/16 09:38:11;;;;;;;0.00;0.00;;;30.00;47.70;;;;;;5074452;28;20070;-81
2022/05/16 09:40:53;;;;;;;0.25;0.20;;;30.60;47.70;;;;;;5072350;28;20052;-79
2022/05/16 09:43:29;;;;;;;0.00;0.00;;;30.40;46.10;;;;;;5071575;28;20045;-79
2022/05/16 09:46:23;;;;;;;0.08;0.08;;;30.50;49.00;;;;;;5072196;28;20027;-80
2022/05/16 09:49:12;;;;;;;0.00;0.00;;;30.90;44.80;;;;;;5075377;28;20115;-79
2022/05/16 09:52:02;;;;;;;0.20;0.13;;;31.70;45.10;;;;;;5074884;28;20070;-79
2022/05/16 09:54:59;;;;;;;0.40;0.10;;;31.70;42.80;;;;;;5075879;28;20044;-81
2022/05/16 09:57:32;;;;;;;0.08;0.00;;;31.10;43.80;;;;;;5072810;28;20045;-86
2022/05/16 10:00:41;;;;;;;0.00;0.00;;;31.80;43.20;;;;;;5074630;28;20023;-89
2022/05/16 10:03:31;;;;;;;0.00;0.00;;;30.60;42.50;;;;;;5067385;28;20089;-83
2022/05/16 10:06:00;;;;;;;0.10;0.10;;;30.70;41.90;;;;;;5075051;28;20059;-87
2022/05/16 10:08:39;;;;;;;0.10;0.10;;;30.50;42.30;;;;;;5075671;28;20017;-86
2022/05/16 10:11:12;;;;;;;0.08;0.00;;;29.60;43.10;;;;;;5075130;28;20055;-88
2022/05/16 10:13:39;;;;;;;0.10;0.10;;;30.30;45.60;;;;;;5076078;28;20051;-86
2022/05/16 10:16:09;;;;;;;0.55;0.38;;;30.60;45.10;;;;;;5074674;28;20119;-83
2022/05/16 10:18:48;;;;;;;0.00;0.00;;;30.50;44.60;;;;;;5075797;28;20089;-85
2022/05/16 10:21:43;;;;;;;0.10;0.10;;;30.40;45.00;;;;;;5075967;28;20032;-84
2022/05/16 10:24:11;;;;;;;0.08;0.00;;;30.50;44.00;;;;;;5073240;28;20056;-84
2022/05/16 10:26:43;;;;;;;0.17;0.10;;;30.20;43.60;;;;;;5074583;28;20024;-79
2022/05/16 10:29:16;;;;;;;0.08;0.00;;;29.90;44.20;;;;;;5074048;28;20099;-85
2022/05/16 10:34:41;;;;;;;0.30;0.22;;;29.40;45.90;;;;;;5076484;28;20028;-82
2022/05/16 10:37:07;;;;;;;0.00;0.00;;;28.90;47.00;;;;;;5073693;28;20017;-82
2022/05/16 10:39:35;;;;;;;0.10;0.10;;;28.50;45.70;;;;;;5057261;28;20053;-83
2022/05/16 10:42:38;;;;;;;0.10;0.10;;;28.50;47.60;;;;;;5074873;28;20008;-82
2022/05/16 10:45:15;;;;;;;0.20;0.10;;;28.20;48.00;;;;;;5070183;28;20025;-82
2022/05/16 10:48:07;;;;;;;0.00;0.00;;;27.80;48.10;;;;;;5075413;28;20125;-82
2022/05/16 10:50:49;;;;;;;0.08;0.00;;;27.40;49.10;;;;;;5073418;28;20016;-83
2022/05/16 10:53:23;;;;;;;0.00;0.00;;;27.00;49.60;;;;;;5075508;28;20024;-80
2022/05/16 10:55:50;;;;;;;0.43;0.25;;;26.90;50.90;;;;;;5076344;28;20021;-80
2022/05/16 10:58:27;;;;;;;0.00;0.00;;;26.40;52.80;;;;;;5075338;28;20043;-82
2022/05/16 11:01:02;;;;;;;0.17;0.10;;;26.00;56.10;;;;;;5074483;28;20145;-82
2022/05/16 11:03:57;;;;;;;0.00;0.00;;;25.50;59.10;;;;;;5077593;28;20372;-81
2022/05/16 11:07:05;;;;;;;0.00;0.00;;;25.30;68.10;;;;;;5008946;28;20099;-81
2022/05/16 11:09:35;;;;;;;5.60;0.25;;;25.00;88.00;;;;;;5069399;28;20036;-83
2022/05/16 11:12:14;;;;;;;0.00;0.00;;;24.80;99.90;;;;;;5075607;28;20131;-77
2022/05/16 11:15:07;;;;;;;0.00;0.00;;;24.80;99.90;;;;;;5074680;28;20099;-79
2022/05/16 11:17:55;;;;;;;0.25;0.10;;;24.60;99.90;;;;;;5076634;28;20031;-81
2022/05/16 11:20:42;;;;;;;0.00;0.00;;;24.60;99.90;;;;;;5074872;28;20103;-80
2022/05/16 11:23:42;;;;;;;0.10;0.10;;;24.50;99.90;;;;;;5074073;28;20023;-79
2022/05/16 11:26:19;;;;;;;0.00;0.00;;;24.60;99.90;;;;;;5074453;28;20020;-82
2022/05/16 11:29:18;;;;;;;0.10;0.10;;;24.50;99.90;;;;;;5072741;28;20025;-82
2022/05/16 11:32:15;;;;;;;0.00;0.00;;;24.70;99.90;;;;;;5072885;28;20104;-81
2022/05/16 11:34:57;;;;;;;0.10;0.10;;;24.70;99.90;;;;;;5075388;28;20025;-82
2022/05/16 11:37:58;;;;;;;0.00;0.00;;;24.70;99.90;;;;;;5075162;28;20024;-84
2022/05/16 11:40:36;;;;;;;0.10;0.10;;;24.70;99.90;;;;;;5075108;28;20052;-83
2022/05/16 11:43:24;;;;;;;0.10;0.10;;;24.80;99.90;;;;;;5077067;28;20020;-83
2022/05/16 11:46:23;;;;;;;0.05;0.05;;;24.90;99.90;;;;;;5074520;28;20017;-76
2022/05/16 11:48:55;;;;;;;0.00;0.00;;;24.80;99.90;;;;;;5072246;28;20062;-81
2022/05/16 11:51:40;;;;;;;0.08;0.00;;;24.90;99.70;;;;;;5072171;28;20039;-78
2022/05/16 11:54:08;;;;;;;0.30;0.10;;;24.80;95.60;;;;;;5072240;28;20111;-78
2022/05/16 12:00:31;;;;;;;0.10;0.10;;;25.00;95.40;;;;;;5073411;28;20081;-78
2022/05/16 12:03:16;;;;;;;0.28;0.10;;;24.80;94.40;;;;;;5073203;28;20032;-80
2022/05/16 12:05:48;;;;;;;0.10;0.10;;;24.60;97.10;;;;;;5073206;28;20016;-83
2022/05/16 12:08:23;;;;;;;0.10;0.10;;;24.50;95.90;;;;;;5072411;28;20028;-79
2022/05/16 12:10:58;;;;;;;0.30;0.20;;;24.50;96.70;;;;;;5071130;28;20028;-78
2022/05/16 12:13:32;;;;;;;0.00;0.00;;;24.60;97.10;;;;;;5072684;28;20017;-82
2022/05/16 12:16:31;;;;;;;0.10;0.10;;;24.70;93.80;;;;;;5073710;28;20017;-80
2022/05/16 12:19:25;;;;;;;0.05;0.05;;;24.50;94.40;;;;;;5073380;28;20089;-79
2022/05/16 12:21:59;;;;;;;0.22;0.10;;;24.60;95.10;;;;;;5072022;28;20017;-79
2022/05/16 12:24:41;;;;;;;0.03;0.03;;;24.80;97.30;;;;;;5072218;28;20024;-79
2022/05/16 12:27:30;;;;;;;0.10;0.10;;;25.20;97.40;;;;;;5071312;28;20100;-80
2022/05/16 12:30:01;;;;;;;0.08;0.08;;;25.40;93.50;;;;;;5072641;28;20115;-78
2022/05/16 12:32:30;;;;;;;0.17;0.10;;;25.90;94.10;;;;;;5071187;28;20502;-82
2022/05/16 12:35:05;;;;;;;0.10;0.10;;;26.40;97.00;;;;;;5071895;28;20452;-78
2022/05/16 12:37:33;;;;;;;0.47;0.25;;;26.60;90.90;;;;;;5073046;28;20095;-81
2022/05/16 12:40:17;;;;;;;0.10;0.10;;;26.80;82.40;;;;;;5071087;28;20468;-77
2022/05/16 12:43:07;;;;;;;0.03;0.03;;;27.10;70.20;;;;;;5072474;28;20020;-77
2022/05/16 12:45:55;;;;;;;0.00;0.00;;;27.40;69.70;;;;;;5071884;28;20353;-77
2022/05/16 12:48:45;;;;;;;0.10;0.10;;;27.10;65.40;;;;;;5072219;28;20263;-78
2022/05/16 12:51:14;;;;;;;0.10;0.10;;;27.10;65.60;;;;;;5072483;28;20081;-77
2022/05/16 12:53:55;;;;;;;0.32;0.32;;;27.10;63.30;;;;;;5071250;28;20025;-79
2022/05/16 12:56:32;;;;;;;0.30;0.30;;;26.80;63.60;;;;;;5072214;28;20071;-83
2022/05/16 12:59:12;;;;;;;0.25;0.25;;;26.60;66.70;;;;;;5072599;28;20017;-77
2022/05/16 13:01:50;;;;;;;0.00;0.00;;;26.50;67.60;;;;;;5071703;28;20020;-79
2022/05/16 13:04:56;;;;;;;1.80;0.57;;;26.30;68.80;;;;;;5071470;28;20056;-79
2022/05/16 13:07:26;;;;;;;0.00;0.00;;;26.30;69.60;;;;;;5072277;28;20016;-78
2022/05/16 13:10:20;;;;;;;0.10;0.10;;;26.50;71.80;;;;;;5073120;28;20078;-77
2022/05/16 13:12:54;;;;;;;0.10;0.10;;;26.60;75.90;;;;;;5072957;28;20016;-78
2022/05/16 13:15:39;;;;;;;0.10;0.10;;;26.80;80.00;;;;;;5072765;28;20087;-77
2022/05/16 13:18:11;;;;;;;0.00;0.00;;;26.30;75.20;;;;;;5071606;28;20039;-76
2022/05/16 13:20:42;;;;;;;0.35;0.35;;;26.30;78.80;;;;;;5074349;28;20024;-81
2022/05/16 13:23:08;;;;;;;0.00;0.00;;;26.20;77.60;;;;;;5074408;28;20026;-78
2022/05/16 13:29:21;;;;;;;0.43;0.30;;;26.30;83.30;;;;;;5060783;28;20028;-84
2022/05/16 13:31:07;;;;;;;0.00;0.00;;;26.50;85.40;;;;;;5080188;28;20063;-84
2022/05/16 13:33:37;;;;;;;0.17;0.08;;;26.50;83.30;;;;;;5078105;28;20049;-84
2022/05/16 13:36:14;;;;;;;;;;;26.40;84.10;;;;;;5078210;28;20020;-83
2022/05/16 13:38:40;;;;;;;0.15;0.10;;;26.80;85.00;;;;;;5078637;28;19900;-84
2022/05/16 13:41:05;;;;;;;0.08;0.00;;;26.60;82.40;;;;;;5077434;28;20142;-84
2022/05/16 13:43:31;;;;;;;0.00;0.00;;;27.00;91.40;;;;;;5078420;28;20016;-84
2022/05/16 13:46:06;;;;;;;0.20;0.10;;;27.60;78.20;;;;;;5078842;28;20021;-84
2022/05/16 13:48:32;;;;;;;0.08;0.00;;;28.00;75.40;;;;;;5078021;28;20032;-84
2022/05/16 13:51:00;;;;;;;0.03;0.00;;;28.30;71.20;;;;;;5077693;28;20029;-84